createdAt,value
2023-05-21T00:01:17.341Z,21.03
2023-05-21T00:03:46.294Z,21.83
2023-05-21T00:06:15.637Z,21.63
2023-05-21T00:08:44.534Z,22.70
2023-05-21T00:11:11.320Z,21.27
2023-05-21T00:13:38.690Z,18.20
2023-05-21T00:16:05.995Z,17.83
2023-05-21T00:19:01.850Z,19.67
2023-05-21T00:21:29.987Z,20.27
2023-05-21T00:23:58.853Z,21.53
2023-05-21T00:26:27.849Z,17.73
2023-05-21T00:28:54.626Z,21.20
2023-05-21T00:31:22.319Z,17.50
2023-05-21T00:33:49.126Z,20.97
2023-05-21T00:36:16.321Z,18.15
2023-05-21T00:38:45.750Z,20.77
2023-05-21T00:41:13.555Z,19.63
2023-05-21T00:43:40.640Z,19.15
2023-05-21T00:46:08.776Z,21.73
2023-05-21T00:48:36.006Z,19.73
2023-05-21T00:51:05.181Z,20.42
2023-05-21T00:53:35.464Z,19.15
2023-05-21T00:56:03.076Z,19.33
2023-05-21T00:58:30.478Z,18.30
2023-05-21T01:00:57.295Z,21.17
2023-05-21T01:03:24.962Z,20.67
2023-05-21T01:05:53.385Z,20.05
2023-05-21T01:08:22.161Z,19.15
2023-05-21T01:10:53.089Z,21.30
2023-05-21T01:13:23.149Z,19.83
2023-05-21T01:15:53.378Z,19.73
2023-05-21T01:18:21.446Z,20.65
2023-05-21T01:20:49.269Z,29.45
2023-05-21T01:23:21.349Z,22.52
2023-05-21T01:25:48.184Z,17.02
2023-05-21T01:28:15.668Z,18.48
2023-05-21T01:30:43.897Z,19.83
2023-05-21T01:33:23.438Z,19.52
2023-05-21T01:36:18.364Z,19.05
2023-05-21T01:39:16.346Z,20.10
2023-05-21T01:41:46.638Z,17.15
2023-05-21T01:44:15.103Z,19.15
2023-05-21T01:46:42.368Z,15.68
2023-05-21T01:49:09.820Z,17.40
2023-05-21T01:51:37.455Z,16.13
2023-05-21T01:54:04.433Z,17.75
2023-05-21T01:56:34.765Z,15.25
2023-05-21T01:59:02.019Z,19.92
2023-05-21T02:01:31.725Z,18.02
2023-05-21T02:03:58.898Z,16.17
2023-05-21T02:06:26.150Z,17.10
2023-05-21T02:08:53.198Z,15.18
2023-05-21T02:11:19.976Z,16.23
2023-05-21T02:13:47.162Z,19.00
2023-05-21T02:16:15.970Z,17.67
2023-05-21T02:21:38.732Z,19.38
2023-05-21T02:24:05.939Z,20.77
2023-05-21T02:26:32.692Z,16.88
2023-05-21T02:28:59.421Z,20.30
2023-05-21T02:31:26.758Z,17.73
2023-05-21T02:33:53.798Z,20.33
2023-05-21T02:36:21.909Z,18.33
2023-05-21T02:38:49.014Z,17.80
2023-05-21T02:41:15.826Z,22.08
2023-05-21T02:43:43.038Z,16.90
2023-05-21T02:46:09.904Z,26.17
2023-05-21T02:48:36.808Z,17.23
2023-05-21T02:51:06.117Z,19.33
2023-05-21T02:53:32.884Z,22.40
2023-05-21T02:55:59.641Z,18.58
2023-05-21T02:58:26.886Z,17.65
2023-05-21T03:00:53.862Z,21.33
2023-05-21T03:03:21.458Z,18.85
2023-05-21T03:05:48.527Z,17.90
2023-05-21T03:08:15.305Z,17.33
2023-05-21T03:10:43.916Z,20.38
2023-05-21T03:13:13.261Z,18.45
2023-05-21T03:15:40.480Z,18.92
2023-05-21T03:18:07.907Z,16.42
2023-05-21T03:20:34.724Z,16.13
2023-05-21T03:23:04.685Z,16.50
2023-05-21T03:25:36.279Z,19.52
2023-05-21T03:28:03.268Z,16.55
2023-05-21T03:30:30.453Z,22.83
2023-05-21T03:32:58.263Z,15.25
2023-05-21T03:35:25.067Z,16.73
2023-05-21T03:37:52.001Z,16.63
2023-05-21T03:40:18.807Z,17.20
2023-05-21T03:42:46.078Z,15.50
2023-05-21T03:45:16.248Z,15.97
2023-05-21T03:47:43.562Z,14.30
2023-05-21T03:50:11.819Z,13.35
2023-05-21T03:52:39.113Z,14.43
2023-05-21T03:55:06.832Z,14.35
2023-05-21T03:57:33.973Z,16.13
2023-05-21T04:00:00.722Z,16.58
2023-05-21T04:02:28.099Z,15.20
2023-05-21T04:04:56.013Z,15.97
2023-05-21T04:07:23.506Z,15.17
2023-05-21T04:09:50.689Z,12.60
2023-05-21T04:12:19.164Z,13.60
2023-05-21T04:14:46.671Z,16.03
2023-05-21T04:17:13.933Z,16.30
2023-05-21T04:19:46.070Z,16.73
2023-05-21T04:22:12.893Z,17.40
2023-05-21T04:24:39.884Z,14.83
2023-05-21T04:27:07.360Z,14.77
2023-05-21T04:29:34.088Z,14.50
2023-05-21T04:32:01.250Z,15.07
2023-05-21T04:34:27.998Z,13.90
2023-05-21T04:36:54.786Z,15.90
2023-05-21T04:39:22.086Z,16.83
2023-05-21T04:41:50.829Z,16.23
2023-05-21T04:44:18.399Z,14.60
2023-05-21T04:46:47.518Z,15.73
2023-05-21T04:49:15.601Z,15.23
2023-05-21T04:51:42.731Z,14.70
2023-05-21T04:54:11.074Z,14.47
2023-05-21T04:56:38.251Z,14.50
2023-05-21T04:59:06.268Z,15.80
2023-05-21T05:01:35.289Z,12.07
2023-05-21T05:04:02.285Z,13.33
2023-05-21T05:06:29.415Z,11.93
2023-05-21T05:08:56.176Z,17.77
2023-05-21T05:11:23.314Z,13.20
2023-05-21T05:13:50.367Z,16.57
2023-05-21T05:16:22.123Z,12.87
2023-05-21T05:18:49.128Z,13.50
2023-05-21T05:21:15.993Z,13.10
2023-05-21T05:23:43.146Z,12.20
2023-05-21T05:26:11.424Z,12.67
2023-05-21T05:28:39.913Z,11.93
2023-05-21T05:31:06.976Z,11.10
2023-05-21T05:33:33.806Z,15.77
2023-05-21T05:36:01.781Z,12.80
2023-05-21T05:38:30.599Z,11.20
2023-05-21T05:41:00.631Z,12.00
2023-05-21T05:43:27.538Z,11.80
2023-05-21T05:45:54.303Z,12.10
2023-05-21T05:48:23.504Z,12.50
2023-05-21T05:50:50.885Z,12.57
2023-05-21T05:53:19.159Z,11.00
2023-05-21T05:55:46.332Z,12.27
2023-05-21T05:58:14.231Z,11.27
2023-05-21T06:00:53.694Z,12.07
2023-05-21T06:03:24.752Z,10.07
2023-05-21T06:05:51.856Z,11.27
2023-05-21T06:08:20.546Z,10.43
2023-05-21T06:10:47.409Z,12.73
2023-05-21T06:13:14.337Z,11.53
2023-05-21T06:15:43.750Z,10.63
2023-05-21T06:18:20.100Z,10.20
2023-05-21T06:20:47.158Z,10.57
2023-05-21T06:23:14.060Z,11.17
2023-05-21T06:25:40.882Z,9.23
2023-05-21T06:28:07.829Z,11.37
2023-05-21T06:30:35.033Z,13.13
2023-05-21T06:33:11.656Z,13.70
2023-05-21T06:35:40.151Z,9.40
2023-05-21T06:38:07.130Z,10.33
2023-05-21T06:40:38.476Z,9.30
2023-05-21T06:43:08.335Z,8.43
2023-05-21T06:45:36.501Z,9.23
2023-05-21T06:48:06.213Z,9.97
2023-05-21T06:50:33.365Z,10.20
2023-05-21T06:53:01.739Z,9.43
2023-05-21T06:55:28.484Z,8.90
2023-05-21T06:57:56.324Z,10.67
2023-05-21T07:00:23.898Z,8.87
2023-05-21T07:02:51.125Z,9.53
2023-05-21T07:05:18.334Z,7.63
2023-05-21T07:07:45.171Z,9.70
2023-05-21T07:10:12.279Z,8.07
2023-05-21T07:12:41.198Z,7.87
2023-05-21T07:15:09.691Z,8.73
2023-05-21T07:17:39.255Z,11.47
2023-05-21T07:20:13.358Z,9.40
2023-05-21T07:22:52.515Z,8.13
2023-05-21T07:25:19.934Z,10.77
2023-05-21T07:27:46.904Z,7.03
2023-05-21T07:30:15.943Z,8.00
2023-05-21T07:32:43.048Z,9.77
2023-05-21T07:35:10.018Z,9.30
2023-05-21T07:37:37.347Z,9.57
2023-05-21T07:40:04.470Z,9.83
2023-05-21T07:42:31.780Z,8.80
2023-05-21T07:45:04.098Z,8.07
2023-05-21T07:47:32.611Z,8.87
2023-05-21T07:49:59.399Z,7.20
2023-05-21T07:52:26.236Z,8.30
2023-05-21T07:54:53.049Z,8.27
2023-05-21T07:57:19.906Z,10.37
2023-05-21T07:59:46.845Z,7.90
2023-05-21T08:02:13.659Z,7.40
2023-05-21T08:04:48.401Z,7.90
2023-05-21T08:07:20.846Z,8.20
2023-05-21T08:09:48.250Z,7.93
2023-05-21T08:12:16.641Z,7.97
2023-05-21T08:14:48.161Z,12.27
2023-05-21T08:17:28.974Z,8.50
2023-05-21T08:19:57.250Z,8.50
2023-05-21T08:22:45.834Z,8.07
2023-05-21T08:25:13.844Z,8.20
2023-05-21T08:30:32.409Z,7.73
2023-05-21T08:33:01.725Z,9.97
2023-05-21T08:35:31.479Z,8.77
2023-05-21T08:37:59.565Z,7.77
2023-05-21T08:40:27.687Z,8.70
2023-05-21T08:43:00.390Z,15.93
2023-05-21T08:45:32.575Z,7.93
2023-05-21T08:48:03.629Z,8.43
2023-05-21T08:50:34.762Z,8.27
2023-05-21T08:53:12.709Z,7.30
2023-05-21T08:55:58.038Z,8.70
2023-05-21T08:58:25.216Z,6.17
2023-05-21T09:00:52.129Z,7.07
2023-05-21T09:03:22.497Z,6.40
2023-05-21T09:05:50.054Z,6.20
2023-05-21T09:08:27.442Z,6.27
2023-05-21T09:10:54.267Z,6.50
2023-05-21T09:13:21.335Z,6.33
2023-05-21T09:15:49.069Z,6.03
2023-05-21T09:18:18.231Z,6.07
2023-05-21T09:20:45.851Z,11.20
2023-05-21T09:23:16.808Z,6.80
2023-05-21T09:25:48.986Z,5.87
2023-05-21T09:28:39.024Z,10.97
2023-05-21T09:31:10.483Z,7.20
2023-05-21T09:33:49.045Z,6.30
2023-05-21T09:36:20.299Z,6.60
2023-05-21T09:38:51.646Z,6.83
2023-05-21T09:41:21.903Z,6.93
2023-05-21T09:43:49.741Z,6.50
2023-05-21T09:46:20.730Z,7.30
2023-05-21T09:48:51.783Z,6.40
2023-05-21T09:51:28.761Z,6.47
2023-05-21T09:54:01.072Z,5.87
2023-05-21T09:56:32.543Z,6.20
2023-05-21T09:59:06.910Z,7.47
2023-05-21T10:01:34.957Z,6.30
2023-05-21T10:04:07.050Z,7.83
2023-05-21T10:06:40.436Z,8.53
2023-05-21T10:09:12.237Z,5.47
2023-05-21T10:11:43.944Z,6.00
2023-05-21T10:14:27.755Z,5.90
2023-05-21T10:16:56.107Z,6.10
2023-05-21T10:19:30.766Z,5.53
2023-05-21T10:22:02.651Z,5.10
2023-05-21T10:24:30.205Z,5.17
2023-05-21T10:27:00.747Z,6.03
2023-05-21T10:29:48.538Z,6.67
2023-05-21T10:32:19.696Z,5.73
2023-05-21T10:35:10.725Z,5.83
2023-05-21T10:37:37.979Z,6.03
2023-05-21T10:40:08.362Z,5.63
2023-05-21T10:43:07.156Z,6.03
2023-05-21T10:46:11.715Z,7.23
2023-05-21T10:49:11.568Z,5.90
2023-05-21T10:52:13.516Z,4.77
2023-05-21T10:55:12.275Z,5.80
2023-05-21T10:58:02.493Z,5.43
2023-05-21T11:00:31.656Z,11.33
2023-05-21T11:03:00.492Z,4.43
2023-05-21T11:05:57.774Z,4.57
2023-05-21T11:08:31.846Z,9.13
2023-05-21T11:10:59.450Z,4.97
2023-05-21T11:13:27.257Z,8.50
2023-05-21T11:16:07.052Z,5.43
2023-05-21T11:18:45.835Z,6.30
2023-05-21T11:21:17.755Z,4.70
2023-05-21T11:24:05.620Z,4.63
2023-05-21T11:26:52.508Z,4.70
2023-05-21T11:29:23.639Z,9.50
2023-05-21T11:32:04.158Z,7.23
2023-05-21T11:34:39.944Z,4.60
2023-05-21T11:37:31.730Z,5.17
2023-05-21T11:40:16.556Z,3.87
2023-05-21T11:42:44.727Z,3.87
2023-05-21T11:45:11.932Z,5.13
2023-05-21T11:47:40.622Z,4.20
2023-05-21T11:50:13.369Z,5.13
2023-05-21T11:52:42.009Z,4.20
2023-05-21T11:55:12.220Z,5.07
2023-05-21T11:57:43.413Z,5.10
2023-05-21T12:00:15.746Z,3.93
2023-05-21T12:02:48.119Z,3.90
2023-05-21T12:05:15.029Z,4.13
2023-05-21T12:07:42.648Z,4.07
2023-05-21T12:10:10.021Z,3.93
2023-05-21T12:12:49.950Z,5.67
2023-05-21T12:15:22.880Z,3.40
2023-05-21T12:17:52.804Z,4.33
2023-05-21T12:20:20.774Z,4.70
2023-05-21T12:22:49.784Z,4.57
2023-05-21T12:25:22.984Z,4.97
2023-05-21T12:27:53.022Z,5.33
2023-05-21T12:30:20.321Z,4.93
2023-05-21T12:32:47.624Z,3.83
2023-05-21T12:35:22.745Z,6.37
2023-05-21T12:37:51.300Z,7.90
2023-05-21T12:40:26.585Z,5.17
2023-05-21T12:42:54.766Z,4.47
2023-05-21T12:45:22.984Z,7.63
2023-05-21T12:47:56.559Z,4.87
2023-05-21T12:50:24.008Z,5.50
2023-05-21T12:52:54.979Z,9.90
2023-05-21T12:55:28.286Z,5.40
2023-05-21T12:58:27.086Z,4.30
2023-05-21T13:00:59.002Z,4.43
2023-05-21T13:03:28.640Z,7.80
2023-05-21T13:06:00.235Z,4.07
2023-05-21T13:08:30.189Z,4.17
2023-05-21T13:10:57.664Z,3.70
2023-05-21T13:13:24.854Z,6.60
2023-05-21T13:15:52.534Z,4.70
2023-05-21T13:18:21.513Z,4.70
2023-05-21T13:20:49.076Z,5.20
2023-05-21T13:23:19.108Z,6.53
2023-05-21T13:25:45.883Z,4.63
2023-05-21T13:28:15.572Z,3.67
2023-05-21T13:30:42.703Z,3.60
2023-05-21T13:33:09.975Z,5.20
2023-05-21T13:35:36.912Z,9.03
2023-05-21T13:38:04.345Z,5.50
2023-05-21T13:40:31.400Z,4.47
2023-05-21T13:42:58.385Z,7.33
2023-05-21T13:45:29.260Z,6.50
2023-05-21T13:47:56.540Z,6.77
2023-05-21T13:50:24.706Z,8.73
2023-05-21T13:52:54.388Z,4.70
2023-05-21T13:55:21.241Z,4.30
2023-05-21T13:57:48.074Z,4.63
2023-05-21T14:00:16.253Z,9.63
2023-05-21T14:02:43.611Z,4.07
2023-05-21T14:05:11.804Z,3.97
2023-05-21T14:07:40.363Z,4.67
2023-05-21T14:10:08.214Z,5.47
2023-05-21T14:12:35.484Z,4.67
2023-05-21T14:15:04.760Z,3.90
2023-05-21T14:17:31.619Z,12.43
2023-05-21T14:19:58.527Z,5.70
2023-05-21T14:22:26.932Z,4.13
2023-05-21T14:24:54.260Z,6.63
2023-05-21T14:27:21.199Z,3.83
2023-05-21T14:29:48.366Z,5.67
2023-05-21T14:32:15.613Z,5.00
2023-05-21T14:34:42.421Z,3.50
2023-05-21T14:37:09.615Z,5.00
2023-05-21T14:39:37.101Z,4.33
2023-05-21T14:42:09.668Z,4.93
2023-05-21T14:44:36.574Z,5.67
2023-05-21T14:47:03.435Z,3.73
2023-05-21T14:49:30.385Z,4.07
2023-05-21T14:51:58.289Z,3.90
2023-05-21T14:54:25.374Z,8.37
2023-05-21T14:56:52.168Z,4.70
2023-05-21T14:59:19.353Z,6.90
2023-05-21T15:01:49.689Z,4.40
2023-05-21T15:04:16.640Z,6.10
2023-05-21T15:06:43.961Z,4.10
2023-05-21T15:09:10.766Z,4.97
2023-05-21T15:11:39.358Z,5.83
2023-05-21T15:14:06.243Z,4.33
2023-05-21T15:16:42.206Z,5.93
2023-05-21T15:19:09.760Z,3.90
2023-05-21T15:21:36.512Z,4.73
2023-05-21T15:24:07.551Z,8.60
2023-05-21T15:26:34.286Z,6.13
2023-05-21T15:29:03.848Z,3.27
2023-05-21T15:31:35.676Z,4.70
2023-05-21T15:34:07.459Z,4.43
2023-05-21T15:36:34.661Z,5.33
2023-05-21T15:39:03.781Z,4.23
2023-05-21T15:41:36.218Z,3.87
2023-05-21T15:44:09.371Z,4.10
2023-05-21T15:46:39.459Z,3.50
2023-05-21T15:49:09.346Z,3.17
2023-05-21T15:51:36.288Z,4.00
2023-05-21T15:54:04.458Z,3.87
2023-05-21T15:56:31.577Z,9.10
2023-05-21T15:59:05.941Z,3.57
2023-05-21T16:01:33.468Z,2.63
2023-05-21T16:04:01.501Z,3.77
2023-05-21T16:06:30.035Z,3.60
2023-05-21T16:08:59.031Z,4.03
2023-05-21T16:11:26.632Z,3.97
2023-05-21T16:13:56.345Z,3.90
2023-05-21T16:16:24.757Z,4.07
2023-05-21T16:18:53.607Z,3.83
2023-05-21T16:21:20.663Z,5.37
2023-05-21T16:23:48.508Z,4.10
2023-05-21T16:26:15.761Z,5.27
2023-05-21T16:28:45.222Z,4.60
2023-05-21T16:31:13.529Z,4.37
2023-05-21T16:33:41.363Z,3.50
2023-05-21T16:36:17.495Z,3.87
2023-05-21T16:38:46.869Z,4.17
2023-05-21T16:41:19.726Z,3.87
2023-05-21T16:43:46.483Z,6.23
2023-05-21T16:46:14.406Z,7.00
2023-05-21T16:48:42.776Z,3.47
2023-05-21T16:51:14.269Z,4.23
2023-05-21T16:53:41.066Z,4.60
2023-05-21T16:56:08.012Z,3.90
2023-05-21T16:58:37.256Z,4.77
2023-05-21T17:01:05.315Z,3.17
2023-05-21T17:03:33.129Z,5.50
2023-05-21T17:06:01.774Z,8.20
2023-05-21T17:08:32.238Z,3.20
2023-05-21T17:11:01.182Z,6.50
2023-05-21T17:13:28.323Z,3.17
2023-05-21T17:15:56.770Z,3.43
2023-05-21T17:18:23.899Z,3.07
2023-05-21T17:20:52.188Z,3.40
2023-05-21T17:23:23.136Z,3.10
2023-05-21T17:25:50.263Z,4.83
2023-05-21T17:28:17.952Z,6.20
2023-05-21T17:30:48.750Z,4.00
2023-05-21T17:33:16.749Z,4.13
2023-05-21T17:35:43.760Z,2.77
2023-05-21T17:38:14.178Z,4.20
2023-05-21T17:40:46.513Z,5.97
2023-05-21T17:43:13.543Z,3.73
2023-05-21T17:45:42.836Z,4.60
2023-05-21T17:48:12.678Z,3.70
2023-05-21T17:50:40.602Z,3.40
2023-05-21T17:53:09.497Z,3.23
2023-05-21T17:55:37.980Z,3.90
2023-05-21T17:58:06.236Z,4.00
2023-05-21T18:00:33.841Z,3.30
2023-05-21T18:03:02.032Z,7.53
2023-05-21T18:05:35.543Z,6.20
2023-05-21T18:08:04.848Z,4.27
2023-05-21T18:10:37.714Z,6.53
2023-05-21T18:13:07.223Z,3.67
2023-05-21T18:15:36.660Z,3.53
2023-05-21T18:18:05.485Z,4.27
2023-05-21T18:20:32.350Z,3.50
2023-05-21T18:22:59.159Z,4.40
2023-05-21T18:25:31.046Z,7.90
2023-05-21T18:28:00.182Z,3.10
2023-05-21T18:30:48.829Z,5.90
2023-05-21T18:33:19.373Z,5.57
2023-05-21T18:35:47.118Z,3.50
2023-05-21T18:38:15.615Z,3.33
2023-05-21T18:40:42.807Z,5.70
2023-05-21T18:43:11.107Z,4.30
2023-05-21T18:45:38.122Z,3.47
2023-05-21T18:48:05.625Z,6.10
2023-05-21T18:50:33.661Z,3.90
2023-05-21T18:53:01.078Z,3.80
2023-05-21T18:55:31.200Z,2.73
2023-05-21T18:58:01.380Z,3.63
2023-05-21T19:00:31.323Z,4.57
2023-05-21T19:03:00.211Z,4.30
2023-05-21T19:05:28.636Z,7.33
2023-05-21T19:07:57.958Z,4.07
2023-05-21T19:10:30.811Z,5.27
2023-05-21T19:12:58.110Z,6.47
2023-05-21T19:15:27.194Z,4.20
2023-05-21T19:17:56.099Z,3.70
2023-05-21T19:20:28.808Z,6.30
2023-05-21T19:22:55.929Z,3.50
2023-05-21T19:25:24.474Z,5.77
2023-05-21T19:27:54.503Z,4.20
2023-05-21T19:30:26.885Z,3.60
2023-05-21T19:32:57.036Z,3.20
2023-05-21T19:35:27.507Z,4.93
2023-05-21T19:37:59.670Z,3.93
2023-05-21T19:40:31.565Z,3.67
2023-05-21T19:43:00.955Z,4.40
2023-05-21T19:45:29.142Z,4.47
2023-05-21T19:47:59.545Z,5.17
2023-05-21T19:50:33.155Z,3.90
2023-05-21T19:53:00.266Z,7.43
2023-05-21T19:55:31.399Z,5.10
2023-05-21T19:58:06.631Z,5.03
2023-05-21T20:00:35.829Z,6.90
2023-05-21T20:03:06.342Z,3.37
2023-05-21T20:05:36.560Z,3.63
2023-05-21T20:08:05.197Z,6.00
2023-05-21T20:10:35.784Z,9.80
2023-05-21T20:13:04.828Z,3.47
2023-05-21T20:15:32.535Z,5.47
2023-05-21T20:18:01.257Z,4.70
2023-05-21T20:20:28.253Z,4.60
2023-05-21T20:23:04.518Z,4.93
2023-05-21T20:25:32.522Z,4.17
2023-05-21T20:28:05.479Z,4.73
2023-05-21T20:30:34.819Z,3.70
2023-05-21T20:33:03.308Z,7.70
2023-05-21T20:35:30.457Z,4.47
2023-05-21T20:37:57.716Z,5.30
2023-05-21T20:40:27.162Z,5.17
2023-05-21T20:42:54.265Z,5.27
2023-05-21T20:45:26.049Z,6.17
2023-05-21T20:48:03.004Z,5.40
2023-05-21T20:50:31.737Z,4.33
2023-05-21T20:52:59.341Z,5.40
2023-05-21T20:55:27.167Z,4.33
2023-05-21T20:57:54.676Z,4.40
2023-05-21T21:00:23.739Z,7.93
2023-05-21T21:02:52.569Z,7.50
2023-05-21T21:05:21.655Z,6.63
2023-05-21T21:07:54.142Z,9.30
2023-05-21T21:10:22.776Z,4.50
2023-05-21T21:12:49.646Z,5.73
2023-05-21T21:15:17.296Z,8.10
2023-05-21T21:17:44.290Z,5.27
2023-05-21T21:20:13.383Z,4.93
2023-05-21T21:22:40.573Z,4.70
2023-05-21T21:25:10.364Z,6.33
2023-05-21T21:27:37.151Z,4.40
2023-05-21T21:30:04.973Z,4.63
2023-05-21T21:32:40.580Z,3.90
2023-05-21T21:35:07.999Z,4.47
2023-05-21T21:37:35.146Z,6.53
2023-05-21T21:40:05.507Z,4.87
2023-05-21T21:42:33.720Z,4.00
2023-05-21T21:45:00.824Z,6.60
2023-05-21T21:47:30.130Z,4.80
2023-05-21T21:50:00.296Z,6.07
2023-05-21T21:52:27.845Z,9.80
2023-05-21T21:54:56.489Z,5.87
2023-05-21T21:57:25.166Z,5.50
2023-05-21T21:59:51.955Z,4.20
2023-05-21T22:02:19.413Z,5.20
2023-05-21T22:04:46.669Z,5.10
2023-05-21T22:07:18.241Z,5.50
2023-05-21T22:09:48.829Z,4.40
2023-05-21T22:12:17.104Z,4.67
2023-05-21T22:14:44.127Z,4.43
2023-05-21T22:17:12.780Z,5.37
2023-05-21T22:19:39.910Z,4.50
2023-05-21T22:22:07.026Z,8.60
2023-05-21T22:24:33.732Z,7.07
2023-05-21T22:27:01.647Z,4.77
2023-05-21T22:29:37.744Z,5.13
2023-05-21T22:32:06.380Z,4.97
2023-05-21T22:34:35.252Z,5.07
2023-05-21T22:37:04.023Z,6.77
2023-05-21T22:39:30.832Z,6.03
2023-05-21T22:42:01.354Z,4.87
2023-05-21T22:44:28.257Z,4.27
2023-05-21T22:46:59.316Z,4.50
2023-05-21T22:49:28.649Z,5.40
2023-05-21T22:52:03.828Z,8.50
2023-05-21T22:54:33.267Z,5.60
2023-05-21T22:57:03.833Z,6.40
2023-05-21T22:59:32.522Z,5.90
2023-05-21T23:02:00.293Z,4.90
2023-05-21T23:04:43.405Z,5.37
2023-05-21T23:07:11.488Z,7.80
2023-05-21T23:09:38.794Z,9.83
2023-05-21T23:12:11.548Z,4.43
2023-05-21T23:14:38.251Z,5.33
2023-05-21T23:17:06.335Z,4.60
2023-05-21T23:19:34.978Z,4.97
2023-05-21T23:22:01.934Z,5.80
2023-05-21T23:24:29.836Z,6.13
2023-05-21T23:27:01.848Z,5.87
2023-05-21T23:29:30.450Z,6.00
2023-05-21T23:31:57.645Z,8.13
2023-05-21T23:34:27.432Z,6.83
2023-05-21T23:36:54.633Z,4.67
2023-05-21T23:39:27.632Z,7.60
2023-05-21T23:41:56.959Z,5.00
2023-05-21T23:44:26.170Z,5.70
2023-05-21T23:46:53.945Z,4.40
2023-05-21T23:49:22.537Z,5.17
2023-05-21T23:51:52.334Z,5.43
2023-05-21T23:54:19.239Z,6.63
2023-05-21T23:56:47.101Z,4.97
2023-05-21T23:59:15.094Z,6.70
